createdAt,value
2023-03-07T00:00:09.881Z,96280.00
2023-03-07T00:02:11.210Z,96284.13
2023-03-07T00:04:12.581Z,96286.44
2023-03-07T00:06:13.894Z,96290.63
2023-03-07T00:08:15.221Z,96280.50
2023-03-07T00:10:16.620Z,96292.47
2023-03-07T00:12:17.933Z,96290.00
2023-03-07T00:14:19.279Z,96282.47
2023-03-07T00:16:20.696Z,96281.75
2023-03-07T00:18:22.019Z,96285.25
2023-03-07T00:20:23.321Z,96283.69
2023-03-07T00:22:24.646Z,96285.50
2023-03-07T00:24:25.961Z,96284.78
2023-03-07T00:26:27.329Z,96283.25
2023-03-07T00:28:28.634Z,96275.09
2023-03-07T00:30:29.997Z,96276.91
2023-03-07T00:32:31.349Z,96275.84
2023-03-07T00:34:32.793Z,96281.78
2023-03-07T00:36:34.136Z,96270.88
2023-03-07T00:38:35.461Z,96279.47
2023-03-07T00:40:36.868Z,96276.97
2023-03-07T00:42:38.218Z,96280.53
2023-03-07T00:44:39.525Z,96274.69
2023-03-07T00:46:40.880Z,96268.81
2023-03-07T00:48:42.218Z,96266.44
2023-03-07T00:50:43.563Z,96269.81
2023-03-07T00:52:44.893Z,96263.88
2023-03-07T00:54:46.200Z,96255.38
2023-03-07T00:56:47.573Z,96242.75
2023-03-07T00:58:48.984Z,96252.31
2023-03-07T01:00:50.481Z,96247.28
2023-03-07T01:02:51.783Z,96245.63
2023-03-07T01:04:53.109Z,96248.19
2023-03-07T01:06:54.412Z,96242.19
2023-03-07T01:08:55.747Z,96236.91
2023-03-07T01:10:57.048Z,96240.22
2023-03-07T01:12:58.350Z,96235.00
2023-03-07T01:14:59.688Z,96233.88
2023-03-07T01:17:00.988Z,96232.00
2023-03-07T01:19:02.299Z,96225.75
2023-03-07T01:21:03.663Z,96221.22
2023-03-07T01:23:05.029Z,96217.66
2023-03-07T01:25:06.328Z,96209.84
2023-03-07T01:27:07.640Z,96203.69
2023-03-07T01:29:09.020Z,96207.81
2023-03-07T01:31:10.357Z,96217.19
2023-03-07T01:33:11.660Z,96203.50
2023-03-07T01:35:12.960Z,96201.75
2023-03-07T01:37:14.256Z,96206.13
2023-03-07T01:39:15.781Z,96189.16
2023-03-07T01:41:17.132Z,96190.97
2023-03-07T01:43:18.436Z,96188.56
2023-03-07T01:45:19.736Z,96188.34
2023-03-07T01:47:21.040Z,96184.78
2023-03-07T01:49:22.387Z,96179.25
2023-03-07T01:51:23.787Z,96187.16
2023-03-07T01:53:25.092Z,96176.25
2023-03-07T01:55:26.398Z,96174.78
2023-03-07T01:57:27.771Z,96172.41
2023-03-07T01:59:29.290Z,96165.72
2023-03-07T02:01:30.707Z,96170.00
2023-03-07T02:03:32.119Z,96158.16
2023-03-07T02:05:33.508Z,96157.22
2023-03-07T02:07:34.876Z,96147.00
2023-03-07T02:09:36.176Z,96146.19
2023-03-07T02:11:37.520Z,96140.28
2023-03-07T02:13:38.867Z,96140.28
2023-03-07T02:15:40.189Z,96137.88
2023-03-07T02:17:41.495Z,96139.34
2023-03-07T02:19:42.825Z,96130.81
2023-03-07T02:21:44.137Z,96128.31
2023-03-07T02:23:45.513Z,96121.56
2023-03-07T02:25:46.821Z,96129.31
2023-03-07T02:27:48.116Z,96126.91
2023-03-07T02:29:49.411Z,96127.72
2023-03-07T02:31:50.753Z,96125.94
2023-03-07T02:33:52.064Z,96125.69
2023-03-07T02:35:53.406Z,96119.50
2023-03-07T02:37:54.728Z,96127.94
2023-03-07T02:39:56.057Z,96120.75
2023-03-07T02:41:57.427Z,96123.03
2023-03-07T02:43:58.936Z,96120.28
2023-03-07T02:46:00.304Z,96116.78
2023-03-07T02:48:01.624Z,96114.91
2023-03-07T02:50:02.932Z,96113.00
2023-03-07T02:52:04.296Z,96115.47
2023-03-07T02:54:05.593Z,96111.03
2023-03-07T02:56:07.014Z,96106.38
2023-03-07T02:58:08.365Z,96107.16
2023-03-07T03:00:12.114Z,96098.81
2023-03-07T03:02:13.433Z,96106.50
2023-03-07T03:04:14.733Z,96095.44
2023-03-07T03:06:16.087Z,96096.53
2023-03-07T03:08:17.391Z,96098.41
2023-03-07T03:10:18.865Z,96090.09
2023-03-07T03:12:20.188Z,96092.00
2023-03-07T03:14:21.505Z,96087.69
2023-03-07T03:16:22.926Z,96083.19
2023-03-07T03:18:24.328Z,96074.91
2023-03-07T03:20:25.952Z,96074.19
2023-03-07T03:22:27.309Z,96074.44
2023-03-07T03:24:28.651Z,96075.44
2023-03-07T03:26:29.960Z,96074.53
2023-03-07T03:28:31.261Z,96068.50
2023-03-07T03:30:35.696Z,96067.03
2023-03-07T03:32:37.077Z,96064.56
2023-03-07T03:34:38.563Z,96064.66
2023-03-07T03:36:39.859Z,96064.66
2023-03-07T03:38:41.197Z,96059.38
2023-03-07T03:40:42.496Z,96062.56
2023-03-07T03:42:44.044Z,96059.38
2023-03-07T03:44:45.416Z,96054.44
2023-03-07T03:46:46.767Z,96057.22
2023-03-07T03:48:48.076Z,96051.09
2023-03-07T03:50:49.382Z,96053.41
2023-03-07T03:52:50.680Z,96048.03
2023-03-07T03:54:52.028Z,96039.22
2023-03-07T03:56:53.347Z,96039.22
2023-03-07T03:58:55.234Z,96043.50
2023-03-07T04:00:56.534Z,96037.97
2023-03-07T04:02:57.972Z,96041.03
2023-03-07T04:04:59.393Z,96042.28
2023-03-07T04:07:00.728Z,96027.81
2023-03-07T04:09:03.549Z,96027.53
2023-03-07T04:11:05.021Z,96029.38
2023-03-07T04:13:06.342Z,96025.41
2023-03-07T04:15:07.724Z,96028.53
2023-03-07T04:17:09.056Z,96019.66
2023-03-07T04:19:12.777Z,96026.31
2023-03-07T04:21:14.157Z,96023.66
2023-03-07T04:23:15.463Z,96016.75
2023-03-07T04:25:16.795Z,96014.94
2023-03-07T04:27:18.141Z,96006.28
2023-03-07T04:29:19.439Z,96006.53
2023-03-07T04:31:20.766Z,96004.88
2023-03-07T04:33:22.133Z,96002.44
2023-03-07T04:35:23.492Z,96001.59
2023-03-07T04:37:24.840Z,95995.94
2023-03-07T04:39:26.136Z,95990.31
2023-03-07T04:41:27.498Z,95989.75
2023-03-07T04:43:28.801Z,95983.16
2023-03-07T04:45:30.102Z,95972.38
2023-03-07T04:47:31.396Z,95977.66
2023-03-07T04:49:32.704Z,95974.63
2023-03-07T04:51:34.007Z,95966.25
2023-03-07T04:53:35.336Z,95963.09
2023-03-07T04:55:36.632Z,95953.97
2023-03-07T04:57:37.940Z,95949.91
2023-03-07T04:59:39.632Z,95949.25
2023-03-07T05:01:41.040Z,95947.88
2023-03-07T05:03:42.393Z,95944.81
2023-03-07T05:05:43.779Z,95942.41
2023-03-07T05:07:45.080Z,95783.72
2023-03-07T05:09:46.408Z,95929.59
2023-03-07T05:11:47.769Z,95934.19
2023-03-07T05:13:49.111Z,95937.06
2023-03-07T05:15:50.646Z,95920.47
2023-03-07T05:17:51.960Z,95927.44
2023-03-07T05:19:56.341Z,95926.69
2023-03-07T05:21:57.714Z,95924.25
2023-03-07T05:23:59.052Z,95913.13
2023-03-07T05:26:00.377Z,95912.13
2023-03-07T05:28:01.815Z,95918.75
2023-03-07T05:30:03.488Z,95921.94
2023-03-07T05:32:04.996Z,95922.44
2023-03-07T05:34:06.378Z,95919.31
2023-03-07T05:36:07.844Z,95917.16
2023-03-07T05:38:09.151Z,95923.41
2023-03-07T05:40:14.009Z,95927.19
2023-03-07T05:42:15.672Z,95922.59
2023-03-07T05:44:17.000Z,95928.84
2023-03-07T05:46:18.342Z,95930.31
2023-03-07T05:48:19.692Z,95916.47
2023-03-07T05:50:21.135Z,95908.53
2023-03-07T05:52:22.432Z,95914.31
2023-03-07T05:54:23.762Z,95915.88
2023-03-07T05:56:25.127Z,95906.56
2023-03-07T05:58:26.475Z,95910.66
2023-03-07T06:00:27.760Z,95906.38
2023-03-07T06:02:29.148Z,95906.31
2023-03-07T06:04:30.522Z,95909.88
2023-03-07T06:06:31.851Z,95903.84
2023-03-07T06:08:33.143Z,95908.38
2023-03-07T06:10:34.826Z,95900.16
2023-03-07T06:12:36.284Z,95895.50
2023-03-07T06:14:37.603Z,95895.66
2023-03-07T06:16:38.904Z,95844.81
2023-03-07T06:18:40.386Z,95909.69
2023-03-07T06:20:41.771Z,95902.16
2023-03-07T06:22:43.102Z,95899.84
2023-03-07T06:24:44.448Z,95896.56
2023-03-07T06:26:45.764Z,95896.88
2023-03-07T06:28:47.071Z,95892.78
2023-03-07T06:30:48.382Z,95892.94
2023-03-07T06:32:49.715Z,95890.50
2023-03-07T06:34:51.061Z,95897.47
2023-03-07T06:36:52.371Z,95905.13
2023-03-07T06:38:53.673Z,95905.31
2023-03-07T06:40:55.007Z,95902.94
2023-03-07T06:42:56.310Z,95904.72
2023-03-07T06:44:57.731Z,95901.38
2023-03-07T06:46:59.239Z,95901.53
2023-03-07T06:49:00.644Z,95900.72
2023-03-07T06:51:02.213Z,95898.22
2023-03-07T06:53:03.612Z,95898.22
2023-03-07T06:55:04.944Z,95892.91
2023-03-07T06:57:06.247Z,95897.00
2023-03-07T06:59:07.578Z,95898.47
2023-03-07T07:01:10.956Z,95902.41
2023-03-07T07:03:12.339Z,95891.00
2023-03-07T07:05:13.720Z,95896.66
2023-03-07T07:07:15.019Z,95892.94
2023-03-07T07:09:16.328Z,95893.44
2023-03-07T07:11:17.662Z,95892.44
2023-03-07T07:13:18.995Z,95891.28
2023-03-07T07:15:20.296Z,95897.78
2023-03-07T07:17:21.853Z,95893.31
2023-03-07T07:19:23.167Z,95891.66
2023-03-07T07:21:24.471Z,95892.41
2023-03-07T07:23:27.159Z,95891.59
2023-03-07T07:25:28.462Z,95889.94
2023-03-07T07:27:29.966Z,95885.66
2023-03-07T07:29:31.299Z,95892.78
2023-03-07T07:31:32.769Z,95895.38
2023-03-07T07:33:34.200Z,95896.38
2023-03-07T07:35:35.529Z,95902.50
2023-03-07T07:37:36.895Z,95908.59
2023-03-07T07:39:40.798Z,95904.47
2023-03-07T07:41:42.439Z,95904.66
2023-03-07T07:43:45.416Z,95906.34
2023-03-07T07:45:46.787Z,95902.31
2023-03-07T07:47:48.107Z,95904.31
2023-03-07T07:49:52.470Z,95908.75
2023-03-07T07:51:53.780Z,95908.09
2023-03-07T07:53:55.123Z,95901.53
2023-03-07T07:55:56.464Z,95905.91
2023-03-07T07:57:57.792Z,95900.03
2023-03-07T07:59:59.153Z,95902.69
2023-03-07T08:02:00.525Z,95901.84
2023-03-07T08:04:01.897Z,95901.84
2023-03-07T08:06:03.219Z,95900.19
2023-03-07T08:08:04.545Z,95900.19
2023-03-07T08:10:05.949Z,95896.84
2023-03-07T08:12:07.406Z,95901.03
2023-03-07T08:14:09.404Z,95906.88
2023-03-07T08:16:10.832Z,95900.78
2023-03-07T08:18:12.431Z,95897.16
2023-03-07T08:20:13.775Z,95897.72
2023-03-07T08:22:15.137Z,95893.19
2023-03-07T08:24:16.709Z,95902.31
2023-03-07T08:26:18.038Z,95901.19
2023-03-07T08:28:19.339Z,95890.66
2023-03-07T08:30:20.750Z,95894.56
2023-03-07T08:32:22.142Z,95890.84
2023-03-07T08:34:23.507Z,95882.19
2023-03-07T08:36:25.419Z,95878.66
2023-03-07T08:38:27.914Z,95882.78
2023-03-07T08:40:29.379Z,95881.78
2023-03-07T08:42:30.795Z,95874.66
2023-03-07T08:44:32.162Z,95882.34
2023-03-07T08:46:33.542Z,95878.13
2023-03-07T08:48:34.853Z,95875.84
2023-03-07T08:50:36.167Z,95881.00
2023-03-07T08:52:37.781Z,95881.13
2023-03-07T08:54:39.136Z,95871.97
2023-03-07T08:56:40.420Z,95879.72
2023-03-07T08:58:41.818Z,95874.72
2023-03-07T09:00:43.218Z,95873.16
2023-03-07T09:02:44.578Z,95882.72
2023-03-07T09:04:45.958Z,95878.63
2023-03-07T09:06:47.287Z,95882.22
2023-03-07T09:08:48.618Z,95877.47
2023-03-07T09:10:50.065Z,95882.72
2023-03-07T09:12:51.422Z,95880.41
2023-03-07T09:14:53.207Z,95878.78
2023-03-07T09:16:54.554Z,95885.63
2023-03-07T09:18:55.870Z,95881.50
2023-03-07T09:20:57.163Z,95882.34
2023-03-07T09:22:58.528Z,95884.31
2023-03-07T09:24:59.916Z,95878.47
2023-03-07T09:27:01.212Z,95882.75
2023-03-07T09:29:02.510Z,95886.38
2023-03-07T09:31:03.836Z,95879.63
2023-03-07T09:33:05.281Z,95874.53
2023-03-07T09:35:06.595Z,95877.91
2023-03-07T09:37:07.915Z,95878.72
2023-03-07T09:39:14.450Z,95879.47
2023-03-07T09:41:16.179Z,95869.09
2023-03-07T09:43:17.601Z,95868.75
2023-03-07T09:45:18.903Z,95871.75
2023-03-07T09:47:20.241Z,95867.09
2023-03-07T09:49:21.535Z,95862.75
2023-03-07T09:51:23.027Z,95860.81
2023-03-07T09:53:24.374Z,95858.81
2023-03-07T09:55:25.688Z,95860.84
2023-03-07T09:57:26.993Z,95866.53
2023-03-07T09:59:28.340Z,95855.47
2023-03-07T10:01:29.642Z,95857.25
2023-03-07T10:03:31.019Z,95857.13
2023-03-07T10:05:32.482Z,95858.63
2023-03-07T10:07:33.840Z,95858.63
2023-03-07T10:09:35.133Z,95849.03
2023-03-07T10:11:36.487Z,95843.19
2023-03-07T10:13:37.862Z,95841.72
2023-03-07T10:15:39.230Z,95856.13
2023-03-07T10:17:40.543Z,95842.63
2023-03-07T10:19:42.300Z,95842.16
2023-03-07T10:21:43.596Z,95846.72
2023-03-07T10:23:44.916Z,95840.22
2023-03-07T10:25:46.325Z,95843.94
2023-03-07T10:27:47.791Z,95839.09
2023-03-07T10:29:49.237Z,95843.63
2023-03-07T10:31:50.612Z,95834.31
2023-03-07T10:33:52.028Z,95836.31
2023-03-07T10:35:53.388Z,95837.41
2023-03-07T10:37:54.744Z,95835.19
2023-03-07T10:39:56.307Z,95836.25
2023-03-07T10:41:57.632Z,95830.50
2023-03-07T10:43:58.966Z,95828.19
2023-03-07T10:46:00.472Z,95833.41
2023-03-07T10:48:02.190Z,95843.66
2023-03-07T10:50:03.508Z,95842.94
2023-03-07T10:52:04.937Z,95829.44
2023-03-07T10:54:06.285Z,95824.34
2023-03-07T10:56:07.621Z,95815.97
2023-03-07T10:58:11.909Z,95816.78
2023-03-07T11:00:13.200Z,95821.91
2023-03-07T11:02:14.504Z,95818.34
2023-03-07T11:04:15.816Z,95812.25
2023-03-07T11:06:17.163Z,95798.34
2023-03-07T11:08:18.501Z,95798.06
2023-03-07T11:10:19.813Z,95796.19
2023-03-07T11:12:21.148Z,95794.91
2023-03-07T11:14:22.586Z,95789.63
2023-03-07T11:16:25.761Z,95786.00
2023-03-07T11:18:27.195Z,95778.88
2023-03-07T11:20:30.315Z,95781.06
2023-03-07T11:22:36.524Z,95768.19
2023-03-07T11:24:38.023Z,95769.66
2023-03-07T11:26:42.365Z,95765.19
2023-03-07T11:28:43.714Z,95765.28
2023-03-07T11:30:45.090Z,95752.41
2023-03-07T11:32:46.543Z,95748.13
2023-03-07T11:34:49.327Z,95752.25
2023-03-07T11:36:50.690Z,95750.63
2023-03-07T11:38:52.019Z,95752.34
2023-03-07T11:40:53.356Z,95738.66
2023-03-07T11:42:54.744Z,95742.19
2023-03-07T11:44:56.071Z,95736.19
2023-03-07T11:46:57.429Z,95734.66
2023-03-07T11:48:58.748Z,95733.28
2023-03-07T11:51:00.160Z,95735.28
2023-03-07T11:53:01.489Z,95730.22
2023-03-07T11:55:02.808Z,95721.94
2023-03-07T11:57:04.990Z,95722.19
2023-03-07T11:59:06.298Z,95725.00
2023-03-07T12:01:07.745Z,95723.47
2023-03-07T12:03:09.132Z,95715.16
2023-03-07T12:05:10.483Z,95716.16
2023-03-07T12:07:12.248Z,95716.31
2023-03-07T12:09:13.640Z,95696.09
2023-03-07T12:11:14.979Z,95718.31
2023-03-07T12:13:16.325Z,95710.84
2023-03-07T12:15:20.632Z,95716.88
2023-03-07T12:17:21.941Z,95707.72
2023-03-07T12:19:23.287Z,95707.84
2023-03-07T12:21:24.662Z,95714.75
2023-03-07T12:23:25.977Z,95705.47
2023-03-07T12:25:28.958Z,95703.72
2023-03-07T12:27:30.409Z,95562.59
2023-03-07T12:29:31.828Z,95701.00
2023-03-07T12:31:33.222Z,95700.91
2023-03-07T12:33:34.755Z,95693.09
2023-03-07T12:35:36.173Z,95701.47
2023-03-07T12:37:37.512Z,95689.44
2023-03-07T12:39:38.828Z,95690.91
2023-03-07T12:41:40.474Z,95701.00
2023-03-07T12:43:41.847Z,95693.13
2023-03-07T12:45:46.212Z,95693.75
2023-03-07T12:47:47.612Z,95696.03
2023-03-07T12:49:50.229Z,95689.09
2023-03-07T12:51:51.794Z,95693.22
2023-03-07T12:53:53.645Z,95689.75
2023-03-07T12:55:54.968Z,95692.94
2023-03-07T12:57:56.358Z,95685.19
2023-03-07T12:59:57.698Z,95682.50
2023-03-07T13:02:00.244Z,95684.13
2023-03-07T13:04:02.302Z,95683.22
2023-03-07T13:06:03.684Z,95680.69
2023-03-07T13:08:05.052Z,95685.06
2023-03-07T13:10:06.417Z,95681.69
2023-03-07T13:12:07.733Z,95686.69
2023-03-07T13:14:12.073Z,95674.75
2023-03-07T13:16:13.465Z,95678.38
2023-03-07T13:18:14.809Z,95678.38
2023-03-07T13:20:18.958Z,95676.78
2023-03-07T13:22:23.280Z,95676.00
2023-03-07T13:24:24.590Z,95670.97
2023-03-07T13:26:25.910Z,95663.41
2023-03-07T13:28:27.235Z,95667.03
2023-03-07T13:30:31.492Z,95660.31
2023-03-07T13:32:32.884Z,95650.19
2023-03-07T13:34:34.216Z,95653.72
2023-03-07T13:36:35.572Z,95647.00
2023-03-07T13:38:36.981Z,95650.47
2023-03-07T13:40:38.329Z,95659.00
2023-03-07T13:42:39.673Z,95646.44
2023-03-07T13:44:41.023Z,95644.81
2023-03-07T13:46:42.381Z,95653.47
2023-03-07T13:48:43.711Z,95654.38
2023-03-07T13:50:45.059Z,95647.72
2023-03-07T13:52:49.668Z,95643.50
2023-03-07T13:54:51.034Z,95637.78
2023-03-07T13:56:52.380Z,95640.41
2023-03-07T13:58:55.743Z,95651.72
2023-03-07T14:00:57.369Z,95640.13
2023-03-07T14:02:58.776Z,95652.41
2023-03-07T14:05:00.132Z,95645.31
2023-03-07T14:07:01.442Z,95644.47
2023-03-07T14:09:05.244Z,95635.22
2023-03-07T14:11:06.876Z,95638.72
2023-03-07T14:13:09.384Z,95632.00
2023-03-07T14:15:10.702Z,95639.75
2023-03-07T14:17:12.014Z,95641.84
2023-03-07T14:19:13.331Z,95639.63
2023-03-07T14:21:14.680Z,95645.31
2023-03-07T14:23:16.002Z,95644.94
2023-03-07T14:25:17.469Z,95631.25
2023-03-07T14:27:21.818Z,95636.41
2023-03-07T14:29:23.257Z,95644.63
2023-03-07T14:31:25.347Z,95646.22
2023-03-07T14:33:26.740Z,95638.72
2023-03-07T14:35:28.091Z,95644.06
2023-03-07T14:37:29.452Z,95632.63
2023-03-07T14:39:30.776Z,95637.66
2023-03-07T14:41:36.614Z,95641.94
2023-03-07T14:43:37.937Z,95628.63
2023-03-07T14:45:39.609Z,95631.97
2023-03-07T14:47:41.006Z,95624.44
2023-03-07T14:49:42.365Z,95631.72
2023-03-07T14:51:43.786Z,95492.81
2023-03-07T14:53:50.979Z,95631.38
2023-03-07T14:55:52.645Z,95622.34
2023-03-07T14:57:54.728Z,95630.91
2023-03-07T14:59:56.066Z,95638.59
2023-03-07T15:01:57.547Z,95634.69
2023-03-07T15:03:58.994Z,95634.06
2023-03-07T15:06:00.335Z,95640.38
2023-03-07T15:08:05.091Z,95634.72
2023-03-07T15:10:06.536Z,95632.44
2023-03-07T15:12:07.952Z,95631.72
2023-03-07T15:14:09.274Z,95627.59
2023-03-07T15:16:10.630Z,95620.13
2023-03-07T15:18:12.001Z,95621.97
2023-03-07T15:20:13.322Z,95617.88
2023-03-07T15:22:14.648Z,95616.22
2023-03-07T15:24:15.999Z,95617.41
2023-03-07T15:26:21.225Z,95611.19
2023-03-07T15:28:22.687Z,95619.47
2023-03-07T15:30:24.061Z,95614.38
2023-03-07T15:32:25.452Z,95616.84
2023-03-07T15:34:27.073Z,95612.34
2023-03-07T15:36:31.116Z,95614.00
2023-03-07T15:38:32.680Z,95608.78
2023-03-07T15:40:34.053Z,95608.63
2023-03-07T15:42:38.424Z,95610.25
2023-03-07T15:44:39.735Z,95613.47
2023-03-07T15:46:41.089Z,95615.78
2023-03-07T15:48:43.444Z,95617.34
2023-03-07T15:50:44.927Z,95616.38
2023-03-07T15:52:46.241Z,95616.25
2023-03-07T15:54:47.736Z,95614.34
2023-03-07T15:56:49.060Z,95620.34
2023-03-07T15:58:50.377Z,95622.78
2023-03-07T16:00:51.712Z,95623.81
2023-03-07T16:02:56.212Z,95615.44
2023-03-07T16:04:57.543Z,95619.72
2023-03-07T16:07:02.224Z,95532.19
2023-03-07T16:09:03.797Z,95622.44
2023-03-07T16:11:08.019Z,95623.38
2023-03-07T16:13:09.388Z,95575.84
2023-03-07T16:15:10.704Z,95615.06
2023-03-07T16:17:24.552Z,95622.75
2023-03-07T16:19:25.896Z,95627.78
2023-03-07T16:21:27.247Z,95628.56
2023-03-07T16:23:31.178Z,95630.41
2023-03-07T16:25:32.943Z,95616.09
2023-03-07T16:27:34.272Z,95617.94
2023-03-07T16:29:35.609Z,95618.09
2023-03-07T16:31:36.946Z,95625.78
2023-03-07T16:33:38.400Z,95631.06
2023-03-07T16:35:42.837Z,95623.69
2023-03-07T16:37:47.249Z,95627.84
2023-03-07T16:39:48.648Z,95625.16
2023-03-07T16:41:52.983Z,95623.50
2023-03-07T16:43:57.248Z,95621.06
2023-03-07T16:45:58.726Z,95622.03
2023-03-07T16:48:00.385Z,95628.22
2023-03-07T16:50:01.802Z,95622.81
2023-03-07T16:52:06.516Z,95625.34
2023-03-07T16:54:08.100Z,95622.91
2023-03-07T16:56:09.424Z,95629.38
2023-03-07T16:58:10.779Z,95631.81
2023-03-07T17:00:12.258Z,95635.00
2023-03-07T17:02:13.622Z,95632.25
2023-03-07T17:04:14.983Z,95629.50
2023-03-07T17:06:16.533Z,95630.31
2023-03-07T17:08:17.971Z,95638.56
2023-03-07T17:10:19.286Z,95638.31
2023-03-07T17:12:20.613Z,95641.91
2023-03-07T17:14:21.932Z,95629.53
2023-03-07T17:16:23.280Z,95634.81
2023-03-07T17:18:26.727Z,95645.97
2023-03-07T17:20:28.094Z,95641.84
2023-03-07T17:22:29.416Z,95643.59
2023-03-07T17:24:31.034Z,95649.31
2023-03-07T17:26:32.855Z,95646.75
2023-03-07T17:28:34.403Z,95641.56
2023-03-07T17:30:35.797Z,95655.25
2023-03-07T17:32:41.001Z,95653.34
2023-03-07T17:34:42.400Z,95655.38
2023-03-07T17:36:43.725Z,95664.53
2023-03-07T17:38:45.072Z,95659.00
2023-03-07T17:40:46.511Z,95656.84
2023-03-07T17:42:51.121Z,95666.13
2023-03-07T17:44:52.481Z,95674.44
2023-03-07T17:46:53.799Z,95674.69
2023-03-07T17:48:55.146Z,95672.44
2023-03-07T17:50:56.728Z,95677.19
2023-03-07T17:52:58.106Z,95679.53
2023-03-07T17:54:59.467Z,95682.19
2023-03-07T17:57:01.078Z,95687.09
2023-03-07T17:59:02.460Z,95692.97
2023-03-07T18:01:03.812Z,95688.91
2023-03-07T18:03:05.680Z,95697.22
2023-03-07T18:05:07.494Z,95701.25
2023-03-07T18:07:08.819Z,95696.03
2023-03-07T18:09:15.129Z,95700.06
2023-03-07T18:11:16.489Z,95706.28
2023-03-07T18:13:18.165Z,95711.75
2023-03-07T18:15:19.952Z,95709.69
2023-03-07T18:17:22.056Z,95714.19
2023-03-07T18:19:27.028Z,95722.41
2023-03-07T18:21:29.865Z,95722.72
2023-03-07T18:23:31.330Z,95724.97
2023-03-07T18:25:32.684Z,95728.53
2023-03-07T18:27:33.996Z,95724.69
2023-03-07T18:29:35.292Z,95734.16
2023-03-07T18:31:37.083Z,95743.59
2023-03-07T18:33:41.464Z,95744.44
2023-03-07T18:35:43.803Z,95745.91
2023-03-07T18:37:45.575Z,95758.28
2023-03-07T18:39:47.007Z,95757.38
2023-03-07T18:41:48.327Z,95758.09
2023-03-07T18:43:49.805Z,95754.50
2023-03-07T18:45:53.048Z,95751.38
2023-03-07T18:47:54.375Z,95746.97
2023-03-07T18:49:57.655Z,95746.16
2023-03-07T18:51:59.052Z,95756.69
2023-03-07T18:54:00.405Z,95745.97
2023-03-07T18:56:01.713Z,95751.41
2023-03-07T18:58:03.067Z,95751.50
2023-03-07T19:00:05.389Z,95763.56
2023-03-07T19:02:06.784Z,95763.38
2023-03-07T19:04:09.202Z,95764.19
2023-03-07T19:06:10.590Z,95760.09
2023-03-07T19:08:11.936Z,95767.13
2023-03-07T19:10:19.006Z,95767.13
2023-03-07T19:12:20.344Z,95766.59
2023-03-07T19:14:24.849Z,95769.97
2023-03-07T19:16:29.085Z,95767.38
2023-03-07T19:18:30.472Z,95769.13
2023-03-07T19:20:31.776Z,95774.59
2023-03-07T19:22:33.619Z,95772.78
2023-03-07T19:24:34.956Z,95773.53
2023-03-07T19:26:36.314Z,95774.34
2023-03-07T19:28:37.708Z,95774.25
2023-03-07T19:30:39.131Z,95766.47
2023-03-07T19:32:40.725Z,95770.47
2023-03-07T19:34:42.211Z,95776.84
2023-03-07T19:36:43.565Z,95782.09
2023-03-07T19:38:44.894Z,95621.69
2023-03-07T19:40:46.217Z,95773.28
2023-03-07T19:42:47.616Z,95779.53
2023-03-07T19:44:48.971Z,95774.72
2023-03-07T19:46:50.370Z,95778.19
2023-03-07T19:48:51.732Z,95776.13
2023-03-07T19:50:53.057Z,95779.75
2023-03-07T19:53:04.720Z,95779.09
2023-03-07T19:55:06.061Z,95779.72
2023-03-07T19:57:09.196Z,95775.34
2023-03-07T19:59:10.551Z,95770.16
2023-03-07T20:01:11.987Z,95782.00
2023-03-07T20:03:13.480Z,95777.50
2023-03-07T20:05:14.896Z,95774.84
2023-03-07T20:07:16.341Z,95774.06
2023-03-07T20:09:20.330Z,95766.28
2023-03-07T20:11:21.681Z,95773.75
2023-03-07T20:13:23.423Z,95766.06
2023-03-07T20:15:24.781Z,95775.28
2023-03-07T20:17:26.196Z,95769.34
2023-03-07T20:19:27.576Z,95759.94
2023-03-07T20:21:28.972Z,95769.53
2023-03-07T20:23:30.368Z,95768.13
2023-03-07T20:25:31.761Z,95764.72
2023-03-07T20:27:33.089Z,95764.72
2023-03-07T20:29:34.747Z,95780.53
2023-03-07T20:31:36.430Z,95770.94
2023-03-07T20:33:37.875Z,95770.94
2023-03-07T20:35:39.297Z,95777.44
2023-03-07T20:37:40.658Z,95780.38
2023-03-07T20:39:43.686Z,95784.81
2023-03-07T20:41:50.858Z,95780.78
2023-03-07T20:43:52.194Z,95792.84
2023-03-07T20:45:53.535Z,95773.41
2023-03-07T20:47:58.014Z,95778.53
2023-03-07T20:50:02.182Z,95775.31
2023-03-07T20:52:03.585Z,95783.00
2023-03-07T20:54:04.993Z,95779.53
2023-03-07T20:56:06.342Z,95779.59
2023-03-07T20:58:08.221Z,95784.97
2023-03-07T21:00:09.570Z,95787.69
2023-03-07T21:02:11.737Z,95796.31
2023-03-07T21:04:16.031Z,95796.47
2023-03-07T21:06:17.352Z,95785.31
2023-03-07T21:08:18.688Z,95791.75
2023-03-07T21:10:20.017Z,95790.59
2023-03-07T21:12:21.394Z,95783.50
2023-03-07T21:14:22.773Z,95799.41
2023-03-07T21:16:25.153Z,95800.53
2023-03-07T21:18:26.592Z,95798.78
2023-03-07T21:20:27.960Z,95800.13
2023-03-07T21:22:29.339Z,95804.94
2023-03-07T21:24:33.575Z,95804.47
2023-03-07T21:26:35.947Z,95803.13
2023-03-07T21:28:37.290Z,95806.22
2023-03-07T21:30:38.633Z,95808.50
2023-03-07T21:32:40.987Z,95805.53
2023-03-07T21:34:42.384Z,95812.94
2023-03-07T21:36:55.914Z,95812.81
2023-03-07T21:39:00.496Z,95805.97
2023-03-07T21:41:01.828Z,95819.66
2023-03-07T21:43:03.148Z,95816.19
2023-03-07T21:45:04.481Z,95804.59
2023-03-07T21:47:08.901Z,95811.44
2023-03-07T21:49:10.283Z,95811.91
2023-03-07T21:51:11.655Z,95814.19
2023-03-07T21:53:22.151Z,95816.97
2023-03-07T21:55:26.321Z,95814.31
2023-03-07T21:57:27.653Z,95817.84
2023-03-07T21:59:29.303Z,95814.84
2023-03-07T22:01:30.749Z,95832.47
2023-03-07T22:03:32.354Z,95819.50
2023-03-07T22:05:33.685Z,95823.97
2023-03-07T22:07:35.065Z,95829.22
2023-03-07T22:09:36.428Z,95824.19
2023-03-07T22:11:37.752Z,95842.84
2023-03-07T22:13:39.816Z,95824.28
2023-03-07T22:15:41.210Z,95830.44
2023-03-07T22:17:42.534Z,95831.50
2023-03-07T22:19:43.874Z,95834.88
2023-03-07T22:21:45.392Z,95836.81
2023-03-07T22:23:46.745Z,95846.59
2023-03-07T22:25:48.096Z,95852.34
2023-03-07T22:27:49.416Z,95853.63
2023-03-07T22:29:50.810Z,95848.97
2023-03-07T22:31:52.227Z,95848.78
2023-03-07T22:33:53.672Z,95854.63
2023-03-07T22:35:55.093Z,95855.38
2023-03-07T22:37:56.469Z,95858.66
2023-03-07T22:39:57.797Z,95870.50
2023-03-07T22:41:59.141Z,95868.06
2023-03-07T22:44:00.534Z,95871.25
2023-03-07T22:46:02.266Z,95880.00
2023-03-07T22:48:03.677Z,95884.28
2023-03-07T22:50:05.756Z,95882.84
2023-03-07T22:52:07.131Z,95876.25
2023-03-07T22:54:08.799Z,95881.53
2023-03-07T22:56:10.215Z,95875.09
2023-03-07T22:58:11.580Z,95874.44
2023-03-07T23:00:12.890Z,95876.50
2023-03-07T23:02:14.215Z,95878.44
2023-03-07T23:04:15.623Z,95883.72
2023-03-07T23:06:17.008Z,95883.78
2023-03-07T23:08:21.326Z,95877.84
2023-03-07T23:10:22.690Z,95885.50
2023-03-07T23:12:24.067Z,95873.84
2023-03-07T23:14:25.382Z,95868.91
2023-03-07T23:16:26.709Z,95872.47
2023-03-07T23:18:28.038Z,95880.22
2023-03-07T23:20:30.303Z,95888.88
2023-03-07T23:22:31.646Z,95892.41
2023-03-07T23:24:32.976Z,95894.94
2023-03-07T23:26:34.394Z,95890.66
2023-03-07T23:28:35.822Z,95891.66
2023-03-07T23:30:37.217Z,95892.66
2023-03-07T23:32:38.676Z,95900.44
2023-03-07T23:34:40.020Z,95897.94
2023-03-07T23:36:41.391Z,95902.88
2023-03-07T23:38:42.921Z,95898.88
2023-03-07T23:40:44.292Z,95906.59
2023-03-07T23:42:45.608Z,95903.22
2023-03-07T23:44:46.939Z,95900.75
2023-03-07T23:46:48.284Z,95902.59
2023-03-07T23:48:49.637Z,95907.75